CFU3 weather

Chipman Airport
Chipman, Alberta, Canada

Public forecast

Using degrees Celsius for public forecast. Weather courtesy of forecast.io.

Closest aviation weather report (METAR) to Chipman Airport

Closest report is Edmonton (CFB Namao) Heliport, 30.0 nm (55.5 km) W. Retrieved 2019/10/21 06:00 UTC (58 minutes ago):

CYED 210600Z AUTO 10003KT 9SM CLR M04/M06 A2983 RMK SLP130

Closest aviation forecast (TAF) to Chipman Airport

Forecast is more than 12 hours old.

Closest forecast is Edmonton (CFB Namao) Heliport, 30.0 nm (55.5 km) W. Retrieved 2019-10-19 00:33 UTC (2 days ago):

TAF TAF CYED 182330Z 1900/1912 32005KT P6SM SCT080 BKN200 BECMG 1900/1902 VRB03KT RMK FCST BASED ON AUTO OBS NXT FCST BY 190600Z